Decoded Metar for LEMG (MALAGA in SPAIN) (IATA:AGP) | Meteo·Mobile Aviation Weather
aviador You're here:

LEMG Decoded Metar

MALAGA in SPAIN
Report Time2019-07-22 15:30:00
UTC Time2019-07-22 15:49:17
Flight Rules vfr VFR
Wind140° at 10 kt
W.Decomp.*RWY 13: 9.8 kt HW 1.9 kt RCW
RWY 12: 9.3 kt HW 3.6 kt RCW
Visibility9999 m
Phenomena:N/A
Clouds:N/A
Expected CloudBase > 2,800 ft AGL from Temp-Dew spread
CeilingNone
Temp28°C (ISA +13)
Dew Point21°C (66% RH)
Heat Index30.2°C
QNH1017 hPa
Density Alt1,719 ft
Elevation23 ft
Report Wrong Elevation
Raw Report
LEMG 221530Z 14010KT 100V170 CAVOK 28/21 Q1017 NOSIG=

Extra information for LEMG:More info

Metar Taf Metar & Taf Last 4 Metars F.Rules Stats Wind Profile Meteogram Temp Stats Airport Information Weather charts Add Link Nearby VenuesMetar ALERT Operation Metar Decoded Social comments